Time;durP1;ratioP1;P1;durP2;ratioP2;P2;SDS_P1;SDS_P2;PMS_P1;PMS_P2;Temp;Humidity;BMP_temperature;BMP_pressure;BME280_temperature;BME280_humidity;BME280_pressure;Samples;Min_cycle;Max_cycle;Signal;HPM_P1;HPM_P2
2023/11/13 00:01:51;;;;;;;42.95;8.77;;;15.10;99.90;;;;;;4151839;28;20026;-69
2023/11/13 00:03:52;;;;;;;46.92;8.45;;;15.10;99.90;;;;;;4153353;28;20108;-69
2023/11/13 00:05:52;;;;;;;38.50;7.20;;;15.10;99.90;;;;;;4153075;28;20030;-69
2023/11/13 00:07:56;;;;;;;52.95;9.52;;;15.10;99.90;;;;;;4153006;28;20501;-68
2023/11/13 00:09:56;;;;;;;42.50;8.82;;;15.10;99.90;;;;;;4153275;28;20505;-69
2023/11/13 00:11:57;;;;;;;43.85;8.48;;;15.20;99.90;;;;;;4153046;28;20118;-69
2023/11/13 00:13:58;;;;;;;41.75;7.82;;;15.10;99.90;;;;;;4152925;28;20034;-69
2023/11/13 00:15:58;;;;;;;51.25;10.68;;;15.20;99.90;;;;;;4135070;28;20050;-69
2023/11/13 00:17:59;;;;;;;42.70;9.30;;;15.20;99.90;;;;;;4147774;28;20397;-69
2023/11/13 00:20:00;;;;;;;40.10;7.57;;;15.20;99.90;;;;;;4151756;28;20049;-69
2023/11/13 00:22:02;;;;;;;38.25;8.65;;;15.20;99.90;;;;;;4151775;28;20026;-69
2023/11/13 00:24:05;;;;;;;29.33;7.38;;;15.20;99.90;;;;;;4149892;28;20440;-68
2023/11/13 00:26:06;;;;;;;42.13;8.52;;;15.20;99.90;;;;;;4141437;28;20512;-69
2023/11/13 00:28:06;;;;;;;40.20;7.82;;;15.10;99.90;;;;;;4151571;28;20068;-69
2023/11/13 00:30:07;;;;;;;40.28;8.68;;;15.10;99.90;;;;;;4147706;28;20029;-69
2023/11/13 00:32:08;;;;;;;48.53;7.82;;;15.10;99.90;;;;;;4152380;28;20029;-69
2023/11/13 00:34:08;;;;;;;37.30;7.22;;;15.10;99.90;;;;;;4152598;28;20033;-69
2023/11/13 00:36:09;;;;;;;38.08;7.57;;;15.10;99.90;;;;;;4152665;28;20112;-69
2023/11/13 00:38:10;;;;;;;48.80;9.23;;;15.10;99.90;;;;;;4152659;28;20018;-69
2023/11/13 00:40:12;;;;;;;38.30;7.88;;;15.10;99.90;;;;;;4152496;28;20026;-69
2023/11/13 00:42:13;;;;;;;38.35;8.27;;;15.10;99.90;;;;;;4151710;28;20505;-69
2023/11/13 00:44:13;;;;;;;34.08;7.63;;;15.10;99.90;;;;;;4158875;28;20048;-69
2023/11/13 00:46:14;;;;;;;42.80;9.23;;;15.10;99.90;;;;;;4158939;28;20048;-69
2023/11/13 00:48:15;;;;;;;38.85;7.88;;;15.10;99.90;;;;;;4152257;28;20029;-69
2023/11/13 00:50:16;;;;;;;43.40;8.25;;;15.10;99.90;;;;;;4151245;28;20474;-69
2023/11/13 00:52:16;;;;;;;42.15;7.68;;;15.20;99.90;;;;;;4157781;28;20049;-69
2023/11/13 00:54:17;;;;;;;38.63;7.72;;;15.20;99.90;;;;;;4152440;28;20036;-68
2023/11/13 00:56:18;;;;;;;42.08;8.98;;;15.20;99.90;;;;;;4151176;28;20022;-69
2023/11/13 00:58:19;;;;;;;45.35;8.65;;;15.20;99.90;;;;;;4152706;28;20053;-69
2023/11/13 01:00:21;;;;;;;44.95;8.70;;;15.30;99.90;;;;;;4151311;28;20077;-68
2023/11/13 01:02:23;;;;;;;47.92;10.27;;;15.30;99.90;;;;;;4152219;28;20561;-69
2023/11/13 01:04:24;;;;;;;49.70;9.98;;;15.30;99.90;;;;;;4152332;28;20156;-68
2023/11/13 01:06:25;;;;;;;39.88;9.63;;;15.30;99.90;;;;;;4151143;28;20037;-69
2023/11/13 01:08:26;;;;;;;40.05;8.10;;;15.40;99.90;;;;;;4142315;28;20494;-69
2023/11/13 01:10:27;;;;;;;43.38;8.60;;;15.40;99.90;;;;;;4152405;28;20022;-69
2023/11/13 01:12:28;;;;;;;41.20;9.90;;;15.40;99.90;;;;;;4150996;28;20037;-69
2023/11/13 01:14:28;;;;;;;35.88;8.38;;;15.30;99.90;;;;;;4166357;28;20030;-69
2023/11/13 01:16:29;;;;;;;36.08;9.63;;;15.40;99.90;;;;;;4152167;28;20116;-69
2023/11/13 01:18:30;;;;;;;46.40;8.52;;;15.40;99.90;;;;;;4152411;28;20374;-69
2023/11/13 01:20:31;;;;;;;39.20;8.93;;;15.40;99.90;;;;;;4152174;28;20033;-69
2023/11/13 01:22:32;;;;;;;39.95;8.60;;;15.40;99.90;;;;;;4152142;28;20018;-69
2023/11/13 01:24:32;;;;;;;36.67;9.93;;;15.40;99.90;;;;;;4151114;28;20057;-69
2023/11/13 01:26:33;;;;;;;50.70;8.10;;;15.40;99.90;;;;;;4150875;28;20051;-69
2023/11/13 01:28:34;;;;;;;34.53;8.40;;;15.30;99.90;;;;;;4147706;28;20105;-68
2023/11/13 01:30:36;;;;;;;37.47;8.23;;;15.40;99.90;;;;;;4134615;28;20031;-68
2023/11/13 01:32:37;;;;;;;31.88;7.55;;;15.40;99.90;;;;;;4150892;28;20105;-69
2023/11/13 01:34:37;;;;;;;40.08;9.88;;;15.40;99.90;;;;;;4150767;28;20037;-69
2023/11/13 01:36:39;;;;;;;50.83;14.43;;;15.40;99.90;;;;;;4152260;28;20497;-69
2023/11/13 01:38:39;;;;;;;32.63;9.27;;;15.50;99.90;;;;;;4152011;28;20025;-69
2023/11/13 01:40:41;;;;;;;37.97;9.40;;;15.50;99.90;;;;;;4152169;28;20077;-69
2023/11/13 01:42:42;;;;;;;43.20;9.02;;;15.50;99.90;;;;;;4134497;28;20040;-69
2023/11/13 01:44:42;;;;;;;30.00;7.28;;;15.50;99.90;;;;;;4151933;28;20109;-69
2023/11/13 01:46:43;;;;;;;35.10;7.68;;;15.50;99.90;;;;;;4151781;28;20389;-69
2023/11/13 01:48:44;;;;;;;30.48;6.90;;;15.50;99.90;;;;;;4151264;28;20493;-69
2023/11/13 01:50:45;;;;;;;34.83;7.30;;;15.50;99.90;;;;;;4152099;28;20061;-69
2023/11/13 01:52:45;;;;;;;32.97;9.00;;;15.50;99.90;;;;;;4150948;28;20429;-69
2023/11/13 01:54:46;;;;;;;37.05;7.95;;;15.50;99.90;;;;;;4148975;28;20030;-69
2023/11/13 01:56:47;;;;;;;42.42;10.07;;;15.40;99.90;;;;;;4167136;28;20026;-69
2023/11/13 01:58:47;;;;;;;35.83;8.27;;;15.40;99.90;;;;;;4151988;28;20033;-69
2023/11/13 02:00:48;;;;;;;35.65;8.85;;;15.40;99.90;;;;;;4150774;28;20026;-69
2023/11/13 02:02:49;;;;;;;32.78;8.13;;;15.40;99.90;;;;;;4152760;28;20026;-69
2023/11/13 02:04:50;;;;;;;37.72;8.35;;;15.30;99.90;;;;;;4121185;28;20022;-68
2023/11/13 02:06:51;;;;;;;32.45;7.32;;;15.30;99.90;;;;;;4169934;28;20017;-69
2023/11/13 02:08:51;;;;;;;38.17;7.60;;;15.30;99.90;;;;;;4154949;28;20396;-69
2023/11/13 02:10:53;;;;;;;30.98;7.72;;;15.30;99.90;;;;;;4153587;28;20045;-69
2023/11/13 02:12:53;;;;;;;37.17;6.72;;;15.30;99.90;;;;;;4153930;28;20068;-69
2023/11/13 02:14:54;;;;;;;37.70;8.60;;;15.30;99.90;;;;;;4154556;28;20060;-69
2023/11/13 02:17:05;;;;;;;37.10;7.70;;;15.30;99.90;;;;;;4153404;28;20444;-69
2023/11/13 02:19:06;;;;;;;35.50;7.32;;;15.30;99.90;;;;;;4151400;28;20053;-69
2023/11/13 02:21:07;;;;;;;26.30;7.45;;;15.30;99.90;;;;;;4154604;28;20034;-68
2023/11/13 02:23:08;;;;;;;32.17;6.82;;;15.30;99.90;;;;;;4154742;28;20068;-69
2023/11/13 02:25:10;;;;;;;48.17;8.15;;;15.30;99.90;;;;;;4154601;28;20128;-69
2023/11/13 02:27:11;;;;;;;32.85;7.18;;;15.20;99.90;;;;;;4169746;28;20095;-69
2023/11/13 02:29:12;;;;;;;37.85;9.07;;;15.20;99.90;;;;;;4154817;28;20114;-69
2023/11/13 02:31:13;;;;;;;32.30;8.05;;;15.20;99.90;;;;;;4153471;28;20485;-69
2023/11/13 02:33:13;;;;;;;43.67;7.75;;;15.20;99.90;;;;;;4148303;28;20084;-68
2023/11/13 02:35:15;;;;;;;35.35;6.50;;;15.30;99.90;;;;;;4154492;28;20497;-69
2023/11/13 02:37:16;;;;;;;33.97;6.82;;;15.20;99.90;;;;;;4140262;28;20565;-69
2023/11/13 02:39:21;;;;;;;28.98;7.25;;;15.30;99.90;;;;;;4154831;28;20102;-69
2023/11/13 02:41:21;;;;;;;35.20;7.55;;;15.20;99.90;;;;;;4154573;28;20022;-69
2023/11/13 02:43:22;;;;;;;47.72;7.53;;;15.20;99.90;;;;;;4154166;28;20021;-69
2023/11/13 02:45:23;;;;;;;38.22;8.57;;;15.30;99.90;;;;;;4154540;28;20400;-69
2023/11/13 02:47:24;;;;;;;45.92;8.27;;;15.20;99.90;;;;;;4154306;28;20080;-69
2023/11/13 02:49:24;;;;;;;34.40;8.52;;;15.30;99.90;;;;;;4154351;28;20026;-68
2023/11/13 02:51:26;;;;;;;40.33;8.98;;;15.20;99.90;;;;;;4154177;28;20030;-69
2023/11/13 02:53:27;;;;;;;37.92;8.73;;;15.30;99.90;;;;;;4136905;28;20026;-69
2023/11/13 02:55:28;;;;;;;33.92;7.10;;;15.30;99.90;;;;;;4154319;28;20028;-68
2023/11/13 02:57:28;;;;;;;43.17;7.57;;;15.30;99.90;;;;;;4154232;28;20026;-69
2023/11/13 02:59:29;;;;;;;44.28;9.82;;;15.30;99.90;;;;;;4154163;28;20037;-68
2023/11/13 03:01:30;;;;;;;37.67;7.93;;;15.30;99.90;;;;;;4153761;28;20042;-68
2023/11/13 03:03:30;;;;;;;50.55;9.65;;;15.40;99.90;;;;;;4154124;28;20018;-69
2023/11/13 03:05:31;;;;;;;38.35;8.05;;;15.40;99.90;;;;;;4154113;28;20080;-69
2023/11/13 03:07:31;;;;;;;41.13;8.38;;;15.30;99.90;;;;;;4169277;28;20056;-69
2023/11/13 03:09:33;;;;;;;39.35;8.10;;;15.40;99.90;;;;;;4153885;28;20032;-69
2023/11/13 03:11:34;;;;;;;43.53;9.52;;;15.40;99.90;;;;;;4154188;28;20493;-68
2023/11/13 03:13:35;;;;;;;31.55;7.10;;;15.40;99.90;;;;;;4153901;28;20029;-69
2023/11/13 03:15:35;;;;;;;40.75;7.35;;;15.40;99.90;;;;;;4153524;28;20050;-69
2023/11/13 03:17:36;;;;;;;33.42;7.35;;;15.40;99.90;;;;;;4153635;28;20370;-69
2023/11/13 03:19:36;;;;;;;27.95;6.40;;;15.40;99.90;;;;;;4154035;28;20493;-69
2023/11/13 03:21:37;;;;;;;35.13;6.07;;;15.40;99.90;;;;;;4153918;28;20037;-69
2023/11/13 03:23:38;;;;;;;37.50;7.00;;;15.40;99.90;;;;;;4152530;28;20489;-69
2023/11/13 03:25:39;;;;;;;32.75;7.63;;;15.40;99.90;;;;;;4151882;28;20113;-69
2023/11/13 03:27:39;;;;;;;24.17;5.28;;;15.40;99.90;;;;;;4153760;28;20041;-69
2023/11/13 03:29:40;;;;;;;20.08;4.55;;;15.40;99.90;;;;;;4156031;28;20021;-69
2023/11/13 03:31:41;;;;;;;26.17;5.32;;;15.40;99.90;;;;;;4158705;28;20129;-69
2023/11/13 03:33:42;;;;;;;21.30;5.28;;;15.40;99.90;;;;;;4153438;28;20084;-69
2023/11/13 03:35:42;;;;;;;14.65;3.67;;;15.40;99.90;;;;;;4152344;28;20029;-69
2023/11/13 03:37:43;;;;;;;15.13;3.05;;;15.50;99.90;;;;;;4153596;28;20022;-69
2023/11/13 03:39:44;;;;;;;15.30;3.17;;;15.50;99.90;;;;;;4153532;28;20093;-69
2023/11/13 03:41:44;;;;;;;17.25;3.47;;;15.50;99.90;;;;;;4153402;28;20016;-69
2023/11/13 03:43:45;;;;;;;13.25;3.13;;;15.50;99.90;;;;;;4152279;28;20130;-69
2023/11/13 03:45:46;;;;;;;14.07;3.25;;;15.50;99.90;;;;;;4153402;28;20022;-69
2023/11/13 03:47:47;;;;;;;13.18;3.53;;;15.50;99.90;;;;;;4153251;28;20026;-69
2023/11/13 03:49:48;;;;;;;9.13;3.20;;;15.50;99.90;;;;;;4153341;28;20029;-69
2023/11/13 03:51:49;;;;;;;14.18;2.30;;;15.50;99.90;;;;;;4153449;28;20319;-68
2023/11/13 03:53:50;;;;;;;12.38;2.28;;;15.60;99.90;;;;;;4153388;28;20034;-69
2023/11/13 03:55:51;;;;;;;13.80;3.20;;;15.60;99.90;;;;;;4151524;28;20036;-69
2023/11/13 03:57:52;;;;;;;13.82;3.15;;;15.60;99.90;;;;;;4153238;28;20022;-69
2023/11/13 03:59:53;;;;;;;9.13;2.15;;;15.60;99.90;;;;;;4153228;28;20029;-69
2023/11/13 04:01:53;;;;;;;17.48;3.30;;;15.60;99.90;;;;;;4152686;28;20029;-69
2023/11/13 04:03:54;;;;;;;12.18;2.30;;;15.60;99.90;;;;;;4153199;28;20014;-69
2023/11/13 04:05:55;;;;;;;9.23;2.60;;;15.70;99.90;;;;;;4153134;28;20057;-69
2023/11/13 04:07:57;;;;;;;11.15;2.97;;;15.70;99.90;;;;;;4168309;28;20030;-69
2023/11/13 04:09:58;;;;;;;10.40;2.63;;;15.70;99.90;;;;;;4153141;28;20022;-68
2023/11/13 04:11:58;;;;;;;9.63;2.47;;;15.70;99.90;;;;;;4153077;28;20033;-69
2023/11/13 04:13:59;;;;;;;13.23;3.28;;;15.60;99.90;;;;;;4151712;28;20072;-69
2023/11/13 04:16:03;;;;;;;13.00;3.88;;;15.60;99.90;;;;;;4166784;28;20049;-69
2023/11/13 04:18:03;;;;;;;13.80;2.45;;;15.70;99.90;;;;;;4151832;28;20021;-69
2023/11/13 04:20:12;;;;;;;13.55;3.00;;;15.70;99.90;;;;;;4159261;28;20572;-68
2023/11/13 04:22:13;;;;;;;14.05;2.80;;;15.70;99.90;;;;;;4152892;28;20543;-69
2023/11/13 04:24:13;;;;;;;9.98;3.10;;;15.70;99.90;;;;;;4152221;28;20025;-68
2023/11/13 04:26:14;;;;;;;14.25;2.88;;;15.70;99.90;;;;;;4152904;28;20112;-69
2023/11/13 04:28:15;;;;;;;10.95;2.95;;;15.70;99.90;;;;;;4152834;28;20032;-69
2023/11/13 04:30:16;;;;;;;14.18;3.35;;;15.70;99.90;;;;;;4151466;28;20109;-69
2023/11/13 04:32:16;;;;;;;15.30;2.97;;;15.70;99.90;;;;;;4152484;28;20033;-69
2023/11/13 04:34:17;;;;;;;18.13;3.47;;;15.70;99.90;;;;;;4152627;28;20501;-69
2023/11/13 04:36:18;;;;;;;17.90;3.50;;;15.70;99.90;;;;;;4151583;28;20025;-69
2023/11/13 04:38:19;;;;;;;19.70;3.60;;;15.70;99.90;;;;;;4152669;28;20392;-68
2023/11/13 04:40:21;;;;;;;28.88;5.07;;;15.70;99.90;;;;;;4152556;28;20026;-69
2023/11/13 04:42:22;;;;;;;23.92;5.63;;;15.70;99.90;;;;;;4152820;28;20014;-69
2023/11/13 04:44:23;;;;;;;24.45;6.03;;;15.70;99.90;;;;;;4152585;28;20575;-69
2023/11/13 04:46:24;;;;;;;16.65;5.15;;;15.70;99.90;;;;;;4152437;28;20030;-69
2023/11/13 04:48:25;;;;;;;22.60;5.60;;;15.70;99.90;;;;;;4152490;28;20026;-69
2023/11/13 04:50:27;;;;;;;23.85;5.10;;;15.80;99.90;;;;;;4152737;28;20026;-69
2023/11/13 04:52:28;;;;;;;26.88;5.22;;;15.80;99.90;;;;;;4152699;28;20032;-69
2023/11/13 04:54:28;;;;;;;26.65;5.10;;;15.80;99.90;;;;;;4152536;28;20113;-68
2023/11/13 04:56:29;;;;;;;25.60;4.88;;;15.80;99.90;;;;;;4152510;28;20029;-69
2023/11/13 04:58:30;;;;;;;21.08;4.18;;;15.80;99.90;;;;;;4152729;28;20030;-69
2023/11/13 05:00:30;;;;;;;22.20;4.90;;;15.80;99.90;;;;;;4152358;28;20037;-69
2023/11/13 05:02:36;;;;;;;22.15;4.57;;;15.80;99.90;;;;;;4151090;28;20046;-69
2023/11/13 05:04:37;;;;;;;27.17;4.38;;;15.80;99.90;;;;;;4152367;28;20028;-69
2023/11/13 05:06:38;;;;;;;17.17;3.88;;;15.80;99.90;;;;;;4152455;28;20014;-69
2023/11/13 05:08:39;;;;;;;23.38;4.18;;;15.80;99.90;;;;;;4152380;28;20025;-69
2023/11/13 05:10:39;;;;;;;21.20;4.68;;;15.70;99.90;;;;;;4152300;28;20025;-69
2023/11/13 05:12:40;;;;;;;16.52;3.45;;;15.70;99.90;;;;;;4152264;28;20041;-69
2023/11/13 05:14:41;;;;;;;30.10;5.50;;;15.70;99.90;;;;;;4152382;28;20034;-68
2023/11/13 05:16:41;;;;;;;11.60;3.15;;;15.70;99.90;;;;;;4152173;28;20461;-68
2023/11/13 05:18:42;;;;;;;14.00;3.67;;;15.70;99.90;;;;;;4151051;28;20025;-68
2023/11/13 05:20:45;;;;;;;15.88;3.88;;;15.70;99.90;;;;;;4149806;28;20022;-69
2023/11/13 05:22:48;;;;;;;17.02;3.63;;;15.70;99.90;;;;;;4152307;28;20018;-68
2023/11/13 05:24:49;;;;;;;19.80;2.97;;;15.70;99.90;;;;;;4152371;28;20029;-68
2023/11/13 05:26:51;;;;;;;27.55;3.90;;;15.70;99.90;;;;;;4152255;28;20052;-69
2023/11/13 05:28:51;;;;;;;16.73;3.15;;;15.70;99.90;;;;;;4152126;28;20029;-69
2023/11/13 05:30:52;;;;;;;20.05;3.38;;;15.70;99.90;;;;;;4152484;28;20489;-68
2023/11/13 05:32:53;;;;;;;19.25;5.00;;;15.70;99.90;;;;;;4151926;28;20060;-69
2023/11/13 05:34:55;;;;;;;25.30;3.75;;;15.70;99.90;;;;;;4152065;28;20022;-69
2023/11/13 05:36:55;;;;;;;24.40;4.45;;;15.70;99.90;;;;;;4153479;28;20029;-69
2023/11/13 05:38:56;;;;;;;20.30;4.13;;;15.70;99.90;;;;;;4155344;28;20010;-69
2023/11/13 05:40:57;;;;;;;16.52;2.90;;;15.70;99.90;;;;;;4155535;28;20068;-69
2023/11/13 05:42:58;;;;;;;21.90;4.22;;;15.70;99.90;;;;;;4154292;28;20517;-69
2023/11/13 05:44:59;;;;;;;21.65;3.65;;;15.80;99.90;;;;;;4155128;28;20033;-69
2023/11/13 05:46:59;;;;;;;16.60;3.30;;;15.80;99.90;;;;;;4155183;28;20028;-69
2023/11/13 05:49:00;;;;;;;14.82;3.70;;;15.80;99.90;;;;;;4155249;28;20481;-69
2023/11/13 05:51:00;;;;;;;15.48;3.22;;;15.80;99.90;;;;;;4155275;28;20022;-69
2023/11/13 05:53:01;;;;;;;16.08;3.28;;;15.80;99.90;;;;;;4153917;28;20122;-69
2023/11/13 05:55:02;;;;;;;15.25;2.70;;;15.80;99.90;;;;;;4154946;28;20026;-69
2023/11/13 05:57:04;;;;;;;16.67;2.80;;;15.80;99.90;;;;;;4155225;28;20057;-69
2023/11/13 05:59:05;;;;;;;21.02;3.75;;;15.80;99.90;;;;;;4155153;28;20485;-69
2023/11/13 06:01:06;;;;;;;12.57;3.10;;;15.80;99.90;;;;;;4154852;28;20029;-69
2023/11/13 06:03:06;;;;;;;21.48;3.13;;;15.80;99.90;;;;;;4154988;28;20022;-69
2023/11/13 06:05:08;;;;;;;16.20;3.83;;;15.80;99.90;;;;;;4154085;28;20029;-69
2023/11/13 06:07:08;;;;;;;14.00;3.47;;;15.80;99.90;;;;;;4155078;28;20588;-69
2023/11/13 06:09:11;;;;;;;12.73;3.67;;;15.80;99.90;;;;;;4154937;28;20030;-68
2023/11/13 06:11:13;;;;;;;17.35;3.50;;;15.80;99.90;;;;;;4154749;28;20042;-68
2023/11/13 06:13:13;;;;;;;12.50;2.63;;;15.80;99.90;;;;;;4154978;28;20565;-68
2023/11/13 06:15:16;;;;;;;20.98;4.25;;;15.80;99.90;;;;;;4154724;28;20053;-69
2023/11/13 06:17:23;;;;;;;20.70;3.50;;;15.80;99.90;;;;;;4154786;28;20075;-69
2023/11/13 06:19:23;;;;;;;17.10;4.00;;;15.80;99.90;;;;;;4154714;28;20018;-69
2023/11/13 06:21:24;;;;;;;18.00;3.63;;;15.70;99.90;;;;;;4154829;28;20028;-69
2023/11/13 06:23:25;;;;;;;24.73;4.70;;;15.70;99.90;;;;;;4154808;28;20486;-69
2023/11/13 06:25:26;;;;;;;18.17;5.25;;;15.70;99.90;;;;;;4154801;28;20037;-69
2023/11/13 06:27:26;;;;;;;20.55;4.60;;;15.70;99.90;;;;;;4154553;28;20112;-69
2023/11/13 06:29:27;;;;;;;23.38;5.68;;;15.70;99.90;;;;;;4154656;28;20026;-69
2023/11/13 06:31:28;;;;;;;29.02;5.45;;;15.70;99.90;;;;;;4154498;28;20018;-69
2023/11/13 06:33:28;;;;;;;27.42;5.80;;;15.70;99.90;;;;;;4154455;28;20026;-69
2023/11/13 06:35:29;;;;;;;22.90;5.43;;;15.70;99.90;;;;;;4154570;28;20034;-69
2023/11/13 06:37:30;;;;;;;27.33;5.10;;;15.70;99.90;;;;;;4154587;28;20021;-69
2023/11/13 06:39:31;;;;;;;27.75;5.65;;;15.70;99.90;;;;;;4154507;28;20018;-69
2023/11/13 06:41:32;;;;;;;33.72;5.80;;;15.70;99.90;;;;;;4153140;28;20026;-69
2023/11/13 06:43:33;;;;;;;31.92;5.85;;;15.70;99.90;;;;;;4154193;28;20507;-69
2023/11/13 06:45:34;;;;;;;25.40;5.90;;;15.70;99.90;;;;;;4154496;28;20441;-68
2023/11/13 06:47:35;;;;;;;36.83;7.60;;;15.70;99.90;;;;;;4152338;28;20030;-69
2023/11/13 06:49:38;;;;;;;42.25;7.63;;;15.70;99.90;;;;;;4154309;28;20072;-69
2023/11/13 06:51:39;;;;;;;28.60;6.80;;;15.70;99.90;;;;;;4154069;28;20030;-68
2023/11/13 06:53:39;;;;;;;27.38;5.30;;;15.70;99.90;;;;;;4154337;28;20124;-69
2023/11/13 06:55:40;;;;;;;28.83;5.68;;;15.70;99.90;;;;;;4152930;28;20037;-69
2023/11/13 06:57:41;;;;;;;29.55;6.00;;;15.70;99.90;;;;;;4149306;28;20041;-69
2023/11/13 06:59:42;;;;;;;44.30;7.40;;;15.70;99.90;;;;;;4162802;28;20503;-69
2023/11/13 07:01:43;;;;;;;29.45;7.85;;;15.70;99.90;;;;;;4153964;28;20022;-69
2023/11/13 07:03:44;;;;;;;31.23;5.70;;;15.80;99.90;;;;;;4154155;28;20028;-69
2023/11/13 07:05:46;;;;;;;33.58;7.13;;;15.80;99.90;;;;;;4154091;28;20025;-68
2023/11/13 07:07:47;;;;;;;37.45;7.65;;;15.80;99.90;;;;;;4152817;28;20025;-68
2023/11/13 07:09:48;;;;;;;41.38;7.43;;;15.80;99.90;;;;;;4136690;28;20023;-69
2023/11/13 07:11:49;;;;;;;36.63;6.90;;;15.80;99.90;;;;;;4154025;28;20085;-69
2023/11/13 07:13:50;;;;;;;31.33;6.82;;;15.80;99.90;;;;;;4154025;28;20635;-68
2023/11/13 07:15:51;;;;;;;32.63;7.00;;;15.80;99.90;;;;;;4153564;28;20054;-68
2023/11/13 07:17:51;;;;;;;35.50;7.68;;;15.90;99.90;;;;;;4152668;28;20497;-68
2023/11/13 07:19:52;;;;;;;35.75;7.13;;;15.90;99.90;;;;;;4154077;28;20032;-68
2023/11/13 07:21:53;;;;;;;36.55;7.28;;;15.90;99.90;;;;;;4153920;28;20014;-68
2023/11/13 07:23:53;;;;;;;34.72;6.35;;;15.90;99.90;;;;;;4153694;28;20026;-68
2023/11/13 07:25:54;;;;;;;35.47;6.85;;;16.00;99.90;;;;;;4153883;28;20013;-68
2023/11/13 07:27:56;;;;;;;37.95;6.57;;;16.00;99.90;;;;;;4152638;28;20113;-68
2023/11/13 07:29:57;;;;;;;43.67;9.70;;;16.00;99.90;;;;;;4152870;28;20026;-69
2023/11/13 07:31:57;;;;;;;41.47;7.63;;;16.00;99.90;;;;;;4153378;28;20101;-69
2023/11/13 07:33:58;;;;;;;45.55;7.03;;;16.00;99.90;;;;;;4153574;28;20022;-69
2023/11/13 07:35:59;;;;;;;32.20;5.93;;;16.00;99.90;;;;;;4153194;28;20080;-68
2023/11/13 07:38:01;;;;;;;39.17;7.00;;;16.10;99.90;;;;;;4153667;28;20109;-69
2023/11/13 07:40:02;;;;;;;39.47;7.78;;;16.10;99.90;;;;;;4153483;28;20022;-68
2023/11/13 07:42:03;;;;;;;40.05;7.82;;;16.10;99.90;;;;;;4150475;28;20026;-68
2023/11/13 07:44:04;;;;;;;42.10;8.45;;;16.10;99.90;;;;;;4152798;28;20078;-68
2023/11/13 07:46:07;;;;;;;45.90;8.88;;;16.10;99.90;;;;;;4152446;28;20030;-68
2023/11/13 07:48:08;;;;;;;36.70;8.48;;;16.10;99.90;;;;;;4151842;28;20048;-68
2023/11/13 07:50:13;;;;;;;43.90;7.85;;;16.10;99.90;;;;;;4153030;28;20113;-68
2023/11/13 07:52:15;;;;;;;38.78;7.50;;;16.20;99.90;;;;;;4152100;28;20029;-68
2023/11/13 07:54:16;;;;;;;35.70;7.18;;;16.20;99.90;;;;;;4153024;28;20025;-68
2023/11/13 07:56:19;;;;;;;41.30;7.40;;;16.20;99.90;;;;;;4152630;28;20037;-69
2023/11/13 07:58:20;;;;;;;31.00;5.50;;;16.20;99.90;;;;;;4152372;28;20070;-69
2023/11/13 08:00:23;;;;;;;24.83;5.35;;;16.20;99.90;;;;;;4152132;28;20022;-69
2023/11/13 08:02:25;;;;;;;22.02;5.85;;;16.30;99.90;;;;;;4152428;28;20052;-69
2023/11/13 08:04:26;;;;;;;34.72;6.40;;;16.20;99.90;;;;;;4152948;28;20116;-69
2023/11/13 08:06:28;;;;;;;30.35;7.10;;;16.30;99.90;;;;;;4152768;28;20428;-70
2023/11/13 08:08:29;;;;;;;32.78;7.57;;;16.30;99.90;;;;;;4152903;28;20109;-69
2023/11/13 08:10:32;;;;;;;28.08;5.93;;;16.30;99.90;;;;;;4151985;28;20053;-69
2023/11/13 08:12:32;;;;;;;24.00;5.30;;;16.30;99.90;;;;;;4153111;28;20104;-69
2023/11/13 08:14:33;;;;;;;25.42;6.88;;;16.30;99.90;;;;;;4153121;28;20041;-69
2023/11/13 08:16:34;;;;;;;26.90;7.15;;;16.30;99.90;;;;;;4153163;28;20025;-69
2023/11/13 08:18:34;;;;;;;24.60;6.07;;;16.30;99.90;;;;;;4151972;28;20018;-69
2023/11/13 08:20:35;;;;;;;30.85;6.05;;;16.30;99.90;;;;;;4152882;28;20053;-69
2023/11/13 08:22:38;;;;;;;21.17;5.05;;;16.30;99.90;;;;;;4152780;28;20018;-69
2023/11/13 08:24:39;;;;;;;30.00;5.45;;;16.30;99.90;;;;;;4153035;28;20436;-69
2023/11/13 08:26:40;;;;;;;27.40;6.63;;;16.30;99.90;;;;;;4151718;28;20034;-69
2023/11/13 08:28:41;;;;;;;23.80;5.22;;;16.30;99.90;;;;;;4152844;28;20028;-69
2023/11/13 08:30:43;;;;;;;25.40;5.10;;;16.30;99.90;;;;;;4151581;28;20018;-69
2023/11/13 08:32:44;;;;;;;26.98;4.65;;;16.40;99.90;;;;;;4141017;28;20113;-69
2023/11/13 08:34:44;;;;;;;18.05;4.30;;;16.30;99.90;;;;;;4167886;28;20123;-69
2023/11/13 08:36:45;;;;;;;22.10;4.47;;;16.30;99.90;;;;;;4152727;28;20022;-69
2023/11/13 08:38:46;;;;;;;19.15;3.78;;;16.30;99.90;;;;;;4152631;28;20045;-69
2023/11/13 08:40:49;;;;;;;20.60;4.15;;;16.20;99.90;;;;;;4152703;28;20029;-69
2023/11/13 08:42:50;;;;;;;17.70;3.67;;;16.20;99.90;;;;;;4151541;28;20034;-69
2023/11/13 08:44:52;;;;;;;21.50;5.72;;;16.10;99.90;;;;;;4151346;28;20500;-69
2023/11/13 08:46:54;;;;;;;18.35;4.55;;;16.10;99.90;;;;;;4152346;28;20497;-69
2023/11/13 08:48:56;;;;;;;21.38;4.63;;;16.00;99.90;;;;;;4152763;28;20030;-69
2023/11/13 08:51:00;;;;;;;24.67;4.45;;;16.00;99.90;;;;;;4152786;28;20401;-69
2023/11/13 08:53:01;;;;;;;21.98;4.57;;;16.00;99.90;;;;;;4151271;28;20120;-70
2023/11/13 08:55:03;;;;;;;18.58;4.43;;;16.00;99.90;;;;;;4152343;28;20030;-69
2023/11/13 08:57:07;;;;;;;14.20;4.88;;;15.90;99.90;;;;;;4151301;28;20113;-69
2023/11/13 08:59:11;;;;;;;30.52;5.78;;;15.90;99.90;;;;;;4152492;28;20018;-69
2023/11/13 09:01:15;;;;;;;;;;;15.90;99.90;;;;;;4152701;28;20176;-69
2023/11/13 09:03:16;;;;;;;27.40;5.97;;;15.90;99.90;;;;;;4152730;28;20454;-69
2023/11/13 09:05:19;;;;;;;30.23;5.43;;;15.90;99.90;;;;;;4152657;28;20740;-69
2023/11/13 09:07:19;;;;;;;24.85;5.90;;;15.90;99.90;;;;;;4151371;28;20080;-69
2023/11/13 09:09:20;;;;;;;39.30;7.65;;;16.00;99.90;;;;;;4152355;28;20037;-68
2023/11/13 09:11:26;;;;;;;36.08;6.55;;;15.90;99.90;;;;;;4152023;28;20026;-68
2023/11/13 09:13:27;;;;;;;29.85;6.47;;;15.90;99.90;;;;;;4152454;28;20453;-69
2023/11/13 09:15:29;;;;;;;35.72;6.35;;;16.00;99.90;;;;;;4150954;28;20046;-69
2023/11/13 09:17:31;;;;;;;31.48;6.72;;;16.00;99.90;;;;;;4179404;28;20104;-68
2023/11/13 09:19:32;;;;;;;34.83;7.18;;;16.00;99.90;;;;;;4159124;28;20022;-68
2023/11/13 09:21:32;;;;;;;31.60;6.63;;;15.90;99.90;;;;;;4143343;28;20022;-69
2023/11/13 09:23:36;;;;;;;29.80;6.32;;;16.00;99.90;;;;;;4152303;28;20018;-69
2023/11/13 09:25:37;;;;;;;29.15;7.18;;;16.00;99.90;;;;;;4152295;28;20034;-68
2023/11/13 09:27:38;;;;;;;25.73;6.63;;;16.00;99.90;;;;;;4152468;28;20433;-69
2023/11/13 09:29:43;;;;;;;35.42;6.30;;;16.00;99.90;;;;;;4152286;28;20502;-68
2023/11/13 09:31:45;;;;;;;27.70;5.82;;;16.00;99.90;;;;;;4151969;28;20018;-68
2023/11/13 09:33:46;;;;;;;28.75;4.90;;;16.00;99.90;;;;;;4152051;28;20084;-69
2023/11/13 09:35:48;;;;;;;32.47;6.80;;;16.00;99.90;;;;;;4152260;28;20396;-68
2023/11/13 09:37:50;;;;;;;25.70;5.30;;;16.00;99.90;;;;;;4152373;28;20113;-68
2023/11/13 09:39:51;;;;;;;27.95;5.55;;;16.10;99.90;;;;;;4152158;28;20026;-68
2023/11/13 09:41:53;;;;;;;21.15;3.65;;;16.00;99.90;;;;;;4152045;28;20549;-68
2023/11/13 09:43:55;;;;;;;26.08;3.95;;;16.00;99.90;;;;;;4150989;28;20026;-68
2023/11/13 09:45:56;;;;;;;20.05;3.47;;;16.00;99.90;;;;;;4151959;28;20021;-68
2023/11/13 09:48:00;;;;;;;25.23;4.78;;;16.00;99.90;;;;;;4152119;28;20508;-68
2023/11/13 09:50:15;;;;;;;24.23;5.35;;;16.10;99.90;;;;;;4150821;28;20465;-69
2023/11/13 09:52:16;;;;;;;28.63;4.78;;;16.00;99.90;;;;;;4152195;28;20397;-69
2023/11/13 09:54:19;;;;;;;25.88;5.70;;;16.00;99.90;;;;;;4150904;28;20021;-68
2023/11/13 09:56:20;;;;;;;30.00;5.63;;;16.10;99.90;;;;;;4151761;28;20029;-69
2023/11/13 09:58:21;;;;;;;26.20;5.93;;;16.10;99.90;;;;;;4167069;28;20075;-68
2023/11/13 10:00:23;;;;;;;27.52;5.47;;;16.00;99.90;;;;;;4150922;28;20018;-68
2023/11/13 10:02:24;;;;;;;23.63;4.70;;;16.10;99.90;;;;;;4151804;28;20041;-69
2023/11/13 10:04:25;;;;;;;27.00;5.82;;;16.10;99.90;;;;;;4151986;28;20022;-68
2023/11/13 10:06:27;;;;;;;22.85;4.97;;;16.10;99.90;;;;;;4151825;28;20041;-69
2023/11/13 10:08:30;;;;;;;26.77;4.28;;;16.10;99.90;;;;;;4150792;28;20142;-69
2023/11/13 10:10:31;;;;;;;21.95;4.40;;;16.10;99.90;;;;;;4151998;28;20022;-69
2023/11/13 10:12:32;;;;;;;22.75;5.22;;;16.10;99.90;;;;;;4150755;28;20029;-69
2023/11/13 10:14:33;;;;;;;22.02;5.57;;;16.10;99.90;;;;;;4150462;28;20414;-69
2023/11/13 10:16:34;;;;;;;28.08;4.68;;;16.10;99.90;;;;;;4151748;28;20026;-68
2023/11/13 10:18:36;;;;;;;26.60;6.05;;;16.10;99.90;;;;;;4151885;28;20014;-69
2023/11/13 10:20:45;;;;;;;28.25;5.25;;;16.10;99.90;;;;;;4151515;28;20024;-69
2023/11/13 10:23:00;;;;;;;29.92;5.53;;;16.10;99.90;;;;;;4140729;28;20029;-69
2023/11/13 10:25:01;;;;;;;18.45;4.55;;;16.10;99.90;;;;;;4154666;28;20033;-69